Aviation Digital Data Service (ADDS)

Output produced by METARs form (0003 UTC 26 June 2017)
found at http://aviationweather.gov/adds/metars/
 
METAR text: KBFM 252353Z 01009KT 10SM CLR 29/21 A3009 RMK AO2 SLP190 T02940206 10328 20294 53002
Conditions at: KBFM (MOBILE/BROOKLEY , AL, US) observed 2353 UTC 25 June 2017
Temperature: 29.4°C (85°F)
Dewpoint: 20.6°C (69°F) [RH = 59%]
Pressure (altimeter): 30.09 inches Hg (1019.0 mb)
[Sea-level pressure: 1019.0 mb]
Winds: from the N (10 degrees) at 10 MPH (9 knots; 4.7 m/s)
Visibility: 10 or more miles (16+ km)
Ceiling: at least 12,000 feet AGL
Clouds: sky clear below 12,000 feet AGL
Weather: no significant weather observed at this time